Thien Thanh — WDH4287 — position and weather

sailwx.info

Track history (hours):
 
Tides and Currents Weather Stations Pressure Air Temp Water Temp Dewpoint Dewpoint Depression Visibility Wind Speed Wind Dir Waves Ship Positions

Thien Thanh

Owner: tran, trang h, ROSHARON, TX. More information available from US FCC via Universal Licensing System and Coast Guard Vessel Documentation Center.

Last reported at 2017-Nov-30 19:43 UTC. Time now 2017-Dec-11 17:21 UTC.
Position N 40°43' W 074°03'.
Warning: this ship's position is 10 days out of date.

Length 16 m; draft 7.7 m.

Type: Pleasure craft. MMSI: 367616050.

Date/timePositionNaut miles runAvg speedWind from/ knotsBaromVisibWave heightAir tempDewpointWater temp
2017-Nov-30 19:43N 40°43' W 074°03'0 0.0
2017-Nov-30 19:25N 40°43' W 074°03'0 0.0
2017-Nov-30 18:55N 40°43' W 074°03'0 0.0
2017-Nov-30 18:25N 40°43' W 074°03'0 0.0
2017-Nov-30 17:58N 40°43' W 074°03'0 0.0
2017-Nov-30 17:25N 40°43' W 074°03'0 0.1
2017-Nov-30 16:55N 40°43' W 074°03'0 0.0
2017-Nov-30 16:29N 40°43' W 074°03'0 0.0
2017-Nov-30 15:59N 40°43' W 074°03'0 0.0
2017-Nov-30 15:28N 40°43' W 074°03'0 0.0
2017-Nov-30 14:58N 40°43' W 074°03'0 0.0
2017-Nov-30 14:28N 40°43' W 074°03'0 0.0
2017-Nov-30 13:58N 40°43' W 074°03'0 0.0
2017-Nov-30 13:29N 40°43' W 074°03'0 0.0
2017-Nov-30 12:59N 40°43' W 074°03'0 0.0
2017-Nov-30 12:29N 40°43' W 074°03'0 0.0
2017-Nov-30 12:00N 40°43' W 074°03'0 0.0
2017-Nov-30 11:30N 40°43' W 074°03'0 0.0
2017-Nov-30 10:57N 40°43' W 074°03'0 0.0
2017-Nov-30 10:30N 40°43' W 074°03'0 0.0
2017-Nov-30 09:54N 40°43' W 074°03'0 0.0
2017-Nov-30 09:30N 40°43' W 074°03'0 0.0
2017-Nov-30 09:00N 40°43' W 074°03'0 0.0
2017-Nov-30 08:30N 40°43' W 074°03'0 0.0
2017-Nov-30 08:00N 40°43' W 074°03'0 0.0
2017-Nov-30 07:30N 40°43' W 074°03'0 0.0
2017-Nov-30 07:00N 40°43' W 074°03'0 0.0
2017-Nov-30 06:30N 40°43' W 074°03'0 0.0
2017-Nov-30 06:00N 40°43' W 074°03'0 0.0
2017-Nov-30 05:30N 40°43' W 074°03'0 0.0
2017-Nov-30 05:00N 40°43' W 074°03'0 0.0
2017-Nov-30 04:30N 40°43' W 074°03'0 0.0
2017-Nov-30 03:57N 40°43' W 074°03'0 0.0
2017-Nov-30 03:27N 40°43' W 074°03'0 0.0
2017-Nov-30 03:00N 40°43' W 074°03'0 0.0
2017-Nov-30 02:30N 40°43' W 074°03'0 0.0
2017-Nov-30 02:00N 40°43' W 074°03'0 0.0
2017-Nov-30 01:27N 40°43' W 074°03'0 0.0
2017-Nov-30 01:00N 40°43' W 074°03'0 0.0
2017-Nov-30 00:30N 40°43' W 074°03'0 0.0
2017-Nov-30 00:00N 40°43' W 074°03'0 0.0
2017-Nov-29 23:24N 40°43' W 074°03'0 0.0
2017-Nov-29 23:00N 40°43' W 074°03'0 0.0
2017-Nov-29 22:30N 40°43' W 074°03'0 0.0
2017-Nov-29 22:00N 40°43' W 074°03'0 0.0
2017-Nov-29 21:30N 40°43' W 074°03'0 0.0
2017-Nov-29 21:00N 40°43' W 074°03'0 0.0
2017-Nov-29 20:30N 40°43' W 074°03'0 0.0
2017-Nov-29 19:54N 40°43' W 074°03'0 0.0
2017-Nov-29 19:29N 40°43' W 074°03'0 0.0
2017-Nov-29 18:59N 40°43' W 074°03'0 0.0
2017-Nov-29 18:29N 40°43' W 074°03'0 0.0
2017-Nov-29 17:59N 40°43' W 074°03'2 3.8
2017-Nov-29 17:30N 40°42' W 074°01'3 5.8
2017-Nov-29 16:59N 40°44' W 073°58'63 5.9
2017-Nov-29 06:10N 41°07' W 072°40'2 6.0
2017-Nov-29 05:52N 41°07' W 072°37'2 6.0
2017-Nov-29 05:29N 41°08' W 072°35'3 5.9
2017-Nov-29 05:00N 41°09' W 072°31'3 5.3
2017-Nov-29 04:30N 41°11' W 072°28'3 5.0
2017-Nov-29 04:00N 41°12' W 072°25'2 4.8
2017-Nov-29 03:30N 41°12' W 072°22'2 4.4
2017-Nov-29 02:56N 41°13' W 072°19'2 4.6
2017-Nov-29 02:30N 41°13' W 072°16'  
Track history (hours):
 
Tides and Currents Weather Stations Pressure Air Temp Water Temp Dewpoint Dewpoint Depression Visibility Wind Speed Wind Dir Waves Ship Positions

Thien Thanh

Owner: tran, trang h, ROSHARON, TX. More information available from US FCC via Universal Licensing System and Coast Guard Vessel Documentation Center.

Last reported at 2017-Nov-30 19:43 UTC. Time now 2017-Dec-11 17:21 UTC.
Position N 40°43' W 074°03'.
Warning: this ship's position is 10 days out of date.

Length 16 m; draft 7.7 m.

Type: Pleasure craft. MMSI: 367616050.

Date/timePositionNaut miles runAvg speedWind from/ knotsBaromVisibWave heightAir tempDewpointWater temp
2017-Nov-30 19:43N 40°43' W 074°03'0 0.0
2017-Nov-30 19:25N 40°43' W 074°03'0 0.0
2017-Nov-30 18:55N 40°43' W 074°03'0 0.0
2017-Nov-30 18:25N 40°43' W 074°03'0 0.0
2017-Nov-30 17:58N 40°43' W 074°03'0 0.0
2017-Nov-30 17:25N 40°43' W 074°03'0 0.1
2017-Nov-30 16:55N 40°43' W 074°03'0 0.0
2017-Nov-30 16:29N 40°43' W 074°03'0 0.0
2017-Nov-30 15:59N 40°43' W 074°03'0 0.0
2017-Nov-30 15:28N 40°43' W 074°03'0 0.0
2017-Nov-30 14:58N 40°43' W 074°03'0 0.0
2017-Nov-30 14:28N 40°43' W 074°03'0 0.0
2017-Nov-30 13:58N 40°43' W 074°03'0 0.0
2017-Nov-30 13:29N 40°43' W 074°03'0 0.0
2017-Nov-30 12:59N 40°43' W 074°03'0 0.0
2017-Nov-30 12:29N 40°43' W 074°03'0 0.0
2017-Nov-30 12:00N 40°43' W 074°03'0 0.0
2017-Nov-30 11:30N 40°43' W 074°03'0 0.0
2017-Nov-30 10:57N 40°43' W 074°03'0 0.0
2017-Nov-30 10:30N 40°43' W 074°03'0 0.0
2017-Nov-30 09:54N 40°43' W 074°03'0 0.0
2017-Nov-30 09:30N 40°43' W 074°03'0 0.0
2017-Nov-30 09:00N 40°43' W 074°03'0 0.0
2017-Nov-30 08:30N 40°43' W 074°03'0 0.0
2017-Nov-30 08:00N 40°43' W 074°03'0 0.0
2017-Nov-30 07:30N 40°43' W 074°03'0 0.0
2017-Nov-30 07:00N 40°43' W 074°03'0 0.0
2017-Nov-30 06:30N 40°43' W 074°03'0 0.0
2017-Nov-30 06:00N 40°43' W 074°03'0 0.0
2017-Nov-30 05:30N 40°43' W 074°03'0 0.0
2017-Nov-30 05:00N 40°43' W 074°03'0 0.0
2017-Nov-30 04:30N 40°43' W 074°03'0 0.0
2017-Nov-30 03:57N 40°43' W 074°03'0 0.0
2017-Nov-30 03:27N 40°43' W 074°03'0 0.0
2017-Nov-30 03:00N 40°43' W 074°03'0 0.0
2017-Nov-30 02:30N 40°43' W 074°03'0 0.0
2017-Nov-30 02:00N 40°43' W 074°03'0 0.0
2017-Nov-30 01:27N 40°43' W 074°03'0 0.0
2017-Nov-30 01:00N 40°43' W 074°03'0 0.0
2017-Nov-30 00:30N 40°43' W 074°03'0 0.0
2017-Nov-30 00:00N 40°43' W 074°03'0 0.0
2017-Nov-29 23:24N 40°43' W 074°03'0 0.0
2017-Nov-29 23:00N 40°43' W 074°03'0 0.0
2017-Nov-29 22:30N 40°43' W 074°03'0 0.0
2017-Nov-29 22:00N 40°43' W 074°03'0 0.0
2017-Nov-29 21:30N 40°43' W 074°03'0 0.0
2017-Nov-29 21:00N 40°43' W 074°03'0 0.0
2017-Nov-29 20:30N 40°43' W 074°03'0 0.0
2017-Nov-29 19:54N 40°43' W 074°03'0 0.0
2017-Nov-29 19:29N 40°43' W 074°03'0 0.0
2017-Nov-29 18:59N 40°43' W 074°03'0 0.0
2017-Nov-29 18:29N 40°43' W 074°03'0 0.0
2017-Nov-29 17:59N 40°43' W 074°03'2 3.8
2017-Nov-29 17:30N 40°42' W 074°01'3 5.8
2017-Nov-29 16:59N 40°44' W 073°58'63 5.9
2017-Nov-29 06:10N 41°07' W 072°40'2 6.0
2017-Nov-29 05:52N 41°07' W 072°37'2 6.0
2017-Nov-29 05:29N 41°08' W 072°35'3 5.9
2017-Nov-29 05:00N 41°09' W 072°31'3 5.3
2017-Nov-29 04:30N 41°11' W 072°28'3 5.0
2017-Nov-29 04:00N 41°12' W 072°25'2 4.8
2017-Nov-29 03:30N 41°12' W 072°22'2 4.4
2017-Nov-29 02:56N 41°13' W 072°19'2 4.6
2017-Nov-29 02:30N 41°13' W 072°16'  

Dump ship's entire track history